Hiles, South Dakota
Current Conditions -  °F | °C
As of 5:55 AM on Sunday 23 Nov 2014 (Local Time) from KPHP Reporting Station
Clear Clear  
Wind Chill: 33°   Ceiling: Unl
Heat Index: 41°   Visibility: 10mi
Dew Point: 28°   Wind: 15mph
Humidity: 60%   Direction: 300°WNW
Pressure: 29.6"   Gusts: NA
Location:  43.5487°N, 101.811°W
Report Text: KPHP 231255Z AUTO 30013KT 10SM CLR 05/M02 A2960 RMK AO2 SLP025 T00501022 $
Loading
Personal Weather Stations






























Interactive Weather Map New forecast layout! Learn more

10-Day Weather Forecast

Advertisements
Track Severe Weather on mobile